createdAt,value
2018-10-18T00:01:22.928Z,13.64
2018-10-18T00:04:26.497Z,13.64
2018-10-18T00:07:31.018Z,13.64
2018-10-18T00:10:34.470Z,13.65
2018-10-18T00:13:38.225Z,13.66
2018-10-18T00:16:41.739Z,13.73
2018-10-18T00:19:45.328Z,13.81
2018-10-18T00:22:48.872Z,13.79
2018-10-18T00:25:52.458Z,13.72
2018-10-18T00:28:56.138Z,13.72
2018-10-18T00:31:59.621Z,13.71
2018-10-18T00:35:03.162Z,13.68
2018-10-18T00:38:07.703Z,13.65
2018-10-18T00:41:11.241Z,13.58
2018-10-18T00:44:14.834Z,13.58
2018-10-18T00:47:18.266Z,13.54
2018-10-18T00:50:22.796Z,13.46
2018-10-18T00:53:26.323Z,13.37
2018-10-18T00:56:29.993Z,13.25
2018-10-18T00:59:33.545Z,13.17
2018-10-18T01:02:37.114Z,13.29
2018-10-18T01:05:40.615Z,13.38
2018-10-18T01:08:44.210Z,13.46
2018-10-18T01:11:47.808Z,13.31
2018-10-18T01:14:51.326Z,13.26
2018-10-18T01:17:54.818Z,13.29
2018-10-18T01:20:58.479Z,13.27
2018-10-18T01:24:07.254Z,13.24
2018-10-18T01:27:10.804Z,13.15
2018-10-18T01:30:14.380Z,13.04
2018-10-18T01:33:17.873Z,12.98
2018-10-18T01:36:21.428Z,12.94
2018-10-18T01:39:25.122Z,12.98
2018-10-18T01:42:29.612Z,12.89
2018-10-18T01:45:33.250Z,12.82
2018-10-18T01:48:36.813Z,12.86
2018-10-18T01:51:40.356Z,12.90
2018-10-18T01:54:43.932Z,12.90
2018-10-18T01:57:47.431Z,12.77
2018-10-18T02:00:50.910Z,12.67
2018-10-18T02:03:54.522Z,12.67
2018-10-18T02:06:58.155Z,12.75
2018-10-18T02:10:01.922Z,12.68
2018-10-18T02:13:05.902Z,12.54
2018-10-18T02:16:09.581Z,12.51
2018-10-18T02:19:13.139Z,12.45
2018-10-18T02:22:16.616Z,12.51
2018-10-18T02:25:20.184Z,12.61
2018-10-18T02:28:23.717Z,12.54
2018-10-18T02:31:27.224Z,12.41
2018-10-18T02:34:31.820Z,12.35
2018-10-18T02:37:35.329Z,12.34
2018-10-18T02:40:38.876Z,12.40
2018-10-18T02:43:42.473Z,12.38
2018-10-18T02:46:45.971Z,12.34
2018-10-18T02:49:49.576Z,12.38
2018-10-18T02:52:53.079Z,12.41
2018-10-18T02:55:56.648Z,12.39
2018-10-18T02:59:00.166Z,12.34
2018-10-18T03:02:03.792Z,12.33
2018-10-18T03:05:08.710Z,12.36
2018-10-18T03:08:14.321Z,12.45
2018-10-18T03:11:17.880Z,12.42
2018-10-18T03:14:21.505Z,12.38
2018-10-18T03:17:25.163Z,12.40
2018-10-18T03:20:28.652Z,12.36
2018-10-18T03:23:32.152Z,12.29
2018-10-18T03:26:35.726Z,12.26
2018-10-18T03:29:39.310Z,12.18
2018-10-18T03:32:42.838Z,12.15
2018-10-18T03:35:46.541Z,12.20
2018-10-18T03:38:49.983Z,12.23
2018-10-18T03:41:53.598Z,12.20
2018-10-18T03:44:57.316Z,12.19
2018-10-18T03:48:00.818Z,12.19
2018-10-18T03:51:05.478Z,12.20
2018-10-18T03:54:09.274Z,12.24
2018-10-18T03:57:12.893Z,12.25
2018-10-18T04:00:16.437Z,12.18
2018-10-18T04:03:21.948Z,12.22
2018-10-18T04:06:25.566Z,12.25
2018-10-18T04:09:29.514Z,12.19
2018-10-18T04:12:33.089Z,12.13
2018-10-18T04:15:36.679Z,12.07
2018-10-18T04:18:40.291Z,11.93
2018-10-18T04:21:43.929Z,11.88
2018-10-18T04:24:47.533Z,11.87
2018-10-18T04:27:51.077Z,11.94
2018-10-18T04:30:54.614Z,11.89
2018-10-18T04:33:58.174Z,11.85
2018-10-18T04:37:01.667Z,11.77
2018-10-18T04:40:06.011Z,11.80
2018-10-18T04:43:09.777Z,11.82
2018-10-18T04:46:13.303Z,11.86
2018-10-18T04:49:16.813Z,11.87
2018-10-18T04:52:20.311Z,11.87
2018-10-18T04:55:23.869Z,11.83
2018-10-18T04:58:27.666Z,11.79
2018-10-18T05:01:31.289Z,11.82
2018-10-18T05:04:34.848Z,11.77
2018-10-18T05:07:38.402Z,11.71
2018-10-18T05:10:42.157Z,11.76
2018-10-18T05:13:47.806Z,11.76
2018-10-18T05:16:53.445Z,11.72
2018-10-18T05:19:57.013Z,11.66
2018-10-18T05:23:00.771Z,11.59
2018-10-18T05:26:04.380Z,11.47
2018-10-18T05:29:07.882Z,11.39
2018-10-18T05:32:11.397Z,11.21
2018-10-18T05:35:15.052Z,11.09
2018-10-18T05:38:18.749Z,11.07
2018-10-18T05:41:22.371Z,11.08
2018-10-18T05:44:26.029Z,11.06
2018-10-18T05:47:29.616Z,11.09
2018-10-18T05:50:33.096Z,11.16
2018-10-18T05:53:36.700Z,11.17
2018-10-18T05:56:40.171Z,11.23
2018-10-18T05:59:43.659Z,11.24
2018-10-18T06:02:47.585Z,11.23
2018-10-18T06:05:51.090Z,11.18
2018-10-18T06:08:54.524Z,11.12
2018-10-18T06:11:58.115Z,11.08
2018-10-18T06:15:01.690Z,11.17
2018-10-18T06:18:05.438Z,11.23
2018-10-18T06:21:09.006Z,11.24
2018-10-18T06:24:12.720Z,11.26
2018-10-18T06:27:16.312Z,11.34
2018-10-18T06:30:19.880Z,11.38
2018-10-18T06:33:23.422Z,11.42
2018-10-18T06:36:27.086Z,11.43
2018-10-18T06:39:30.691Z,11.44
2018-10-18T06:42:34.248Z,11.48
2018-10-18T06:45:37.836Z,11.42
2018-10-18T06:48:41.825Z,11.44
2018-10-18T06:51:45.352Z,11.46
2018-10-18T06:54:48.818Z,11.44
2018-10-18T06:57:52.356Z,11.49
2018-10-18T07:00:55.901Z,11.60
2018-10-18T07:03:59.430Z,11.72
2018-10-18T07:07:03.133Z,11.80
2018-10-18T07:10:06.978Z,11.80
2018-10-18T07:13:10.750Z,11.87
2018-10-18T07:16:13.939Z,11.85
2018-10-18T07:19:17.526Z,12.03
2018-10-18T07:22:21.369Z,12.24
2018-10-18T07:25:25.014Z,12.44
2018-10-18T07:28:28.408Z,12.60
2018-10-18T07:31:31.854Z,12.79
2018-10-18T07:34:36.275Z,12.98
2018-10-18T07:37:39.829Z,13.10
2018-10-18T07:40:43.378Z,13.21
2018-10-18T07:43:46.816Z,13.35
2018-10-18T07:46:50.378Z,13.51
2018-10-18T07:49:53.784Z,13.55
2018-10-18T07:52:57.312Z,13.41
2018-10-18T07:56:00.810Z,13.40
2018-10-18T07:59:04.307Z,13.59
2018-10-18T08:02:07.956Z,13.77
2018-10-18T08:05:11.966Z,13.90
2018-10-18T08:08:15.413Z,14.08
2018-10-18T08:11:18.833Z,14.24
2018-10-18T08:14:22.475Z,14.33
2018-10-18T08:17:26.174Z,14.47
2018-10-18T08:20:29.938Z,14.59
2018-10-18T08:23:33.338Z,14.57
2018-10-18T08:26:36.724Z,14.66
2018-10-18T08:29:40.184Z,14.61
2018-10-18T08:32:43.658Z,14.65
2018-10-18T08:35:47.151Z,14.60
2018-10-18T08:38:50.730Z,14.76
2018-10-18T08:41:54.163Z,14.93
2018-10-18T08:44:57.669Z,15.10
2018-10-18T08:48:01.208Z,15.39
2018-10-18T08:51:04.722Z,15.36
2018-10-18T08:54:08.228Z,15.56
2018-10-18T08:57:12.226Z,15.60
2018-10-18T09:00:15.722Z,15.63
2018-10-18T09:03:19.193Z,15.66
2018-10-18T09:06:22.673Z,15.71
2018-10-18T09:09:26.108Z,15.83
2018-10-18T09:12:29.689Z,15.95
2018-10-18T09:15:33.212Z,15.99
2018-10-18T09:18:36.686Z,16.06
2018-10-18T09:21:40.101Z,16.26
2018-10-18T09:24:43.558Z,16.43
2018-10-18T09:27:47.062Z,16.39
2018-10-18T09:30:50.530Z,16.32
2018-10-18T09:33:54.111Z,16.65
2018-10-18T09:36:58.315Z,16.97
2018-10-18T09:40:02.582Z,16.93
2018-10-18T09:43:06.222Z,16.96
2018-10-18T09:46:09.764Z,16.98
2018-10-18T09:49:13.322Z,17.04
2018-10-18T09:52:16.769Z,17.07
2018-10-18T09:55:20.198Z,17.16
2018-10-18T09:58:23.702Z,17.38
2018-10-18T10:01:32.563Z,17.33
2018-10-18T10:04:35.979Z,17.44
2018-10-18T10:07:39.397Z,17.47
2018-10-18T10:10:42.844Z,17.65
2018-10-18T10:13:46.327Z,17.80
2018-10-18T10:16:49.742Z,17.87
2018-10-18T10:19:53.202Z,18.06
2018-10-18T10:22:56.628Z,18.19
2018-10-18T10:26:00.081Z,18.25
2018-10-18T10:29:03.539Z,18.47
2018-10-18T10:32:07.036Z,18.58
2018-10-18T10:35:10.604Z,18.64
2018-10-18T10:38:14.054Z,18.62
2018-10-18T10:41:17.556Z,18.79
2018-10-18T10:44:21.004Z,18.76
2018-10-18T10:47:24.346Z,18.86
2018-10-18T10:50:27.889Z,19.03
2018-10-18T10:53:32.374Z,19.22
2018-10-18T10:56:35.917Z,19.22
2018-10-18T10:59:39.428Z,19.36
2018-10-18T11:02:43.121Z,19.43
2018-10-18T11:05:46.561Z,19.61
2018-10-18T11:08:49.963Z,19.80
2018-10-18T11:11:53.537Z,19.98
2018-10-18T11:14:56.968Z,20.20
2018-10-18T11:18:00.578Z,20.27
2018-10-18T11:21:05.051Z,20.31
2018-10-18T11:24:08.491Z,20.47
2018-10-18T11:27:12.211Z,20.59
2018-10-18T11:30:15.806Z,20.77
2018-10-18T11:33:19.073Z,20.70
2018-10-18T11:36:22.645Z,20.68
2018-10-18T11:39:26.184Z,20.75
2018-10-18T11:42:29.894Z,20.82
2018-10-18T11:45:33.451Z,20.85
2018-10-18T11:48:36.896Z,20.95
2018-10-18T11:51:40.554Z,21.11
2018-10-18T11:54:43.906Z,20.96
2018-10-18T11:57:47.418Z,21.09
2018-10-18T12:00:50.970Z,21.26
2018-10-18T12:03:54.409Z,21.39
2018-10-18T12:06:57.910Z,21.22
2018-10-18T12:10:01.442Z,21.29
2018-10-18T12:13:04.943Z,21.43
2018-10-18T12:16:08.541Z,21.44
2018-10-18T12:19:12.094Z,21.33
2018-10-18T12:22:15.553Z,21.44
2018-10-18T12:25:19.088Z,21.48
2018-10-18T12:28:22.602Z,21.52
2018-10-18T12:31:26.144Z,21.55
2018-10-18T12:34:29.659Z,21.58
2018-10-18T12:37:33.136Z,21.68
2018-10-18T12:40:36.722Z,21.74
2018-10-18T12:43:40.953Z,21.74
2018-10-18T12:46:44.480Z,21.75
2018-10-18T12:49:47.966Z,21.82
2018-10-18T12:52:51.514Z,21.80
2018-10-18T12:55:55.041Z,21.84
2018-10-18T12:58:58.625Z,21.94
2018-10-18T13:02:02.089Z,21.91
2018-10-18T13:05:07.137Z,21.86
2018-10-18T13:08:10.712Z,21.93
2018-10-18T13:11:14.222Z,21.83
2018-10-18T13:14:17.804Z,21.81
2018-10-18T13:17:21.241Z,21.82
2018-10-18T13:20:24.739Z,21.92
2018-10-18T13:23:28.288Z,22.03
2018-10-18T13:26:31.858Z,22.10
2018-10-18T13:29:36.425Z,22.17
2018-10-18T13:32:40.511Z,22.30
2018-10-18T13:35:43.941Z,22.26
2018-10-18T13:38:47.432Z,22.21
2018-10-18T13:41:50.878Z,22.31
2018-10-18T13:44:54.685Z,22.45
2018-10-18T13:47:58.127Z,22.56
2018-10-18T13:51:01.822Z,22.63
2018-10-18T13:54:05.673Z,22.52
2018-10-18T13:57:09.142Z,22.66
2018-10-18T14:00:30.020Z,22.78
2018-10-18T14:03:33.642Z,22.97
2018-10-18T14:06:37.178Z,22.95
2018-10-18T14:09:40.661Z,23.05
2018-10-18T14:12:44.162Z,23.12
2018-10-18T14:15:47.635Z,23.02
2018-10-18T14:18:52.049Z,23.15
2018-10-18T14:21:55.451Z,23.16
2018-10-18T14:24:59.934Z,23.12
2018-10-18T14:28:03.482Z,23.10
2018-10-18T14:31:07.035Z,23.05
2018-10-18T14:34:10.722Z,22.88
2018-10-18T14:37:14.216Z,22.81
2018-10-18T14:40:17.755Z,22.76
2018-10-18T14:43:21.234Z,22.66
2018-10-18T14:46:24.743Z,22.56
2018-10-18T14:49:28.275Z,22.53
2018-10-18T14:52:31.769Z,22.47
2018-10-18T14:55:35.369Z,22.47
2018-10-18T14:58:38.820Z,22.42
2018-10-18T15:01:42.342Z,22.38
2018-10-18T15:04:45.836Z,22.38
2018-10-18T15:07:49.380Z,22.35
2018-10-18T15:10:52.932Z,22.40
2018-10-18T15:13:56.334Z,22.29
2018-10-18T15:16:59.742Z,22.19
2018-10-18T15:20:03.225Z,22.03
2018-10-18T15:23:06.650Z,21.94
2018-10-18T15:26:10.132Z,21.89
2018-10-18T15:29:13.595Z,21.81
2018-10-18T15:32:16.998Z,21.62
2018-10-18T15:35:20.518Z,21.46
2018-10-18T15:38:24.107Z,21.26
2018-10-18T15:41:27.316Z,21.18
2018-10-18T15:44:30.857Z,21.11
2018-10-18T15:47:34.510Z,21.05
2018-10-18T15:50:37.833Z,21.03
2018-10-18T15:53:41.276Z,20.98
2018-10-18T15:56:44.913Z,20.96
2018-10-18T15:59:48.482Z,20.93
2018-10-18T16:02:51.843Z,20.81
2018-10-18T16:05:55.288Z,20.72
2018-10-18T16:08:58.740Z,20.63
2018-10-18T16:12:02.190Z,20.53
2018-10-18T16:15:06.505Z,20.42
2018-10-18T16:18:09.890Z,20.37
2018-10-18T16:21:13.270Z,20.26
2018-10-18T16:24:17.924Z,20.15
2018-10-18T16:27:21.332Z,20.03
2018-10-18T16:30:24.736Z,19.96
2018-10-18T16:33:28.184Z,19.87
2018-10-18T16:36:31.631Z,19.76
2018-10-18T16:39:35.053Z,19.65
2018-10-18T16:42:38.562Z,19.55
2018-10-18T16:45:42.010Z,19.45
2018-10-18T16:48:45.398Z,19.40
2018-10-18T16:51:48.906Z,19.43
2018-10-18T16:54:52.540Z,19.38
2018-10-18T16:57:56.029Z,19.29
2018-10-18T17:00:59.568Z,19.21
2018-10-18T17:04:03.073Z,19.09
2018-10-18T17:07:06.750Z,19.12
2018-10-18T17:10:10.316Z,19.22
2018-10-18T17:13:13.949Z,19.25
2018-10-18T17:16:17.553Z,19.21
2018-10-18T17:19:21.483Z,19.06
2018-10-18T17:22:25.112Z,19.03
2018-10-18T17:25:28.683Z,18.91
2018-10-18T17:28:32.213Z,18.75
2018-10-18T17:31:35.676Z,18.62
2018-10-18T17:34:39.459Z,18.45
2018-10-18T17:37:43.152Z,18.36
2018-10-18T17:40:46.846Z,18.31
2018-10-18T17:43:50.302Z,18.22
2018-10-18T17:46:53.880Z,18.17
2018-10-18T17:49:57.554Z,18.14
2018-10-18T17:53:01.116Z,18.08
2018-10-18T17:56:04.617Z,18.04
2018-10-18T17:59:08.165Z,17.98
2018-10-18T18:02:11.782Z,17.94
2018-10-18T18:05:15.169Z,17.89
2018-10-18T18:08:18.698Z,17.93
2018-10-18T18:11:22.167Z,17.92
2018-10-18T18:14:25.672Z,17.97
2018-10-18T18:17:29.222Z,17.99
2018-10-18T18:20:32.762Z,17.99
2018-10-18T18:23:36.389Z,18.00
2018-10-18T18:26:45.346Z,17.97
2018-10-18T18:29:43.429Z,17.87
2018-10-18T18:32:46.986Z,17.89
2018-10-18T18:35:50.448Z,17.89
2018-10-18T18:38:53.975Z,17.87
2018-10-18T18:41:57.480Z,17.86
2018-10-18T18:45:06.351Z,17.79
2018-10-18T18:48:09.801Z,17.75
2018-10-18T18:51:13.339Z,17.68
2018-10-18T18:54:16.849Z,17.58
2018-10-18T18:57:20.343Z,17.51
2018-10-18T19:00:23.968Z,17.48
2018-10-18T19:03:27.479Z,17.50
2018-10-18T19:06:31.066Z,17.38
2018-10-18T19:09:36.805Z,17.34
2018-10-18T19:12:40.440Z,17.28
2018-10-18T19:15:45.161Z,17.17
2018-10-18T19:18:48.650Z,17.22
2018-10-18T19:21:52.218Z,17.19
2018-10-18T19:24:55.987Z,17.15
2018-10-18T19:27:59.491Z,17.01
2018-10-18T19:31:03.158Z,16.94
2018-10-18T19:34:06.669Z,16.98
2018-10-18T19:37:10.228Z,16.87
2018-10-18T19:40:13.770Z,16.76
2018-10-18T19:43:17.307Z,16.76
2018-10-18T19:46:21.087Z,16.82
2018-10-18T19:49:24.729Z,16.86
2018-10-18T19:52:28.679Z,16.86
2018-10-18T19:55:32.261Z,16.82
2018-10-18T19:58:35.860Z,16.73
2018-10-18T20:01:39.613Z,16.71
2018-10-18T20:04:44.164Z,16.62
2018-10-18T20:07:47.607Z,16.50
2018-10-18T20:10:51.162Z,16.35
2018-10-18T20:13:54.721Z,16.23
2018-10-18T20:16:58.269Z,16.28
2018-10-18T20:20:01.851Z,16.40
2018-10-18T20:23:05.711Z,16.46
2018-10-18T20:26:09.381Z,16.44
2018-10-18T20:29:12.698Z,16.37
2018-10-18T20:32:16.377Z,16.21
2018-10-18T20:35:19.955Z,16.16
2018-10-18T20:38:23.562Z,16.15
2018-10-18T20:41:27.806Z,16.13
2018-10-18T20:44:31.286Z,16.08
2018-10-18T20:47:35.070Z,15.97
2018-10-18T20:50:38.463Z,15.90
2018-10-18T20:53:42.020Z,15.85
2018-10-18T20:56:45.491Z,15.82
2018-10-18T20:59:48.882Z,15.76
2018-10-18T21:02:52.473Z,15.72
2018-10-18T21:05:55.998Z,15.66
2018-10-18T21:08:59.497Z,15.61
2018-10-18T21:12:02.916Z,15.54
2018-10-18T21:15:06.424Z,15.41
2018-10-18T21:18:09.916Z,15.34
2018-10-18T21:21:13.395Z,15.33
2018-10-18T21:24:16.830Z,15.26
2018-10-18T21:27:20.646Z,15.26
2018-10-18T21:30:24.108Z,15.21
2018-10-18T21:33:27.519Z,15.26
2018-10-18T21:36:30.997Z,15.26
2018-10-18T21:39:35.848Z,15.27
2018-10-18T21:42:39.294Z,15.22
2018-10-18T21:45:42.808Z,15.15
2018-10-18T21:48:46.470Z,15.09
2018-10-18T21:51:49.913Z,15.09
2018-10-18T21:54:53.348Z,15.08
2018-10-18T21:57:56.776Z,15.09
2018-10-18T22:01:00.283Z,15.07
2018-10-18T22:04:03.651Z,14.97
2018-10-18T22:07:07.060Z,14.94
2018-10-18T22:10:10.899Z,14.97
2018-10-18T22:13:14.409Z,15.00
2018-10-18T22:16:17.982Z,15.00
2018-10-18T22:19:21.466Z,14.98
2018-10-18T22:22:24.976Z,14.92
2018-10-18T22:25:28.519Z,14.88
2018-10-18T22:28:31.973Z,14.87
2018-10-18T22:31:35.935Z,14.88
2018-10-18T22:34:39.410Z,14.85
2018-10-18T22:37:42.902Z,14.80
2018-10-18T22:40:47.413Z,14.67
2018-10-18T22:43:50.967Z,14.59
2018-10-18T22:46:54.489Z,14.55
2018-10-18T22:49:57.948Z,14.51
2018-10-18T22:53:03.511Z,14.48
2018-10-18T22:56:07.045Z,14.45
2018-10-18T22:59:10.772Z,14.42
2018-10-18T23:02:14.350Z,14.37
2018-10-18T23:05:17.813Z,14.38
2018-10-18T23:08:23.393Z,14.26
2018-10-18T23:11:26.973Z,14.25
2018-10-18T23:14:30.448Z,14.12
2018-10-18T23:17:33.971Z,14.03
2018-10-18T23:20:39.323Z,14.01
2018-10-18T23:23:42.800Z,13.95
2018-10-18T23:26:47.322Z,13.92
2018-10-18T23:29:50.827Z,13.93
2018-10-18T23:32:54.430Z,13.92
2018-10-18T23:35:58.092Z,13.81
2018-10-18T23:39:02.699Z,13.73
2018-10-18T23:42:06.224Z,13.68
2018-10-18T23:45:14.794Z,13.69
2018-10-18T23:48:24.637Z,13.76
2018-10-18T23:51:28.328Z,13.74
2018-10-18T23:54:31.814Z,13.63
2018-10-18T23:57:35.419Z,13.54
